createdAt,value
2022-12-23T00:00:32.038Z,42.58
2022-12-23T00:03:39.874Z,41.25
2022-12-23T00:06:45.568Z,44.30
2022-12-23T00:09:51.156Z,43.33
2022-12-23T00:13:15.434Z,42.60
2022-12-23T00:16:21.992Z,42.70
2022-12-23T00:19:27.870Z,40.78
2022-12-23T00:22:52.326Z,42.88
2022-12-23T00:25:58.733Z,41.63
2022-12-23T00:29:04.658Z,40.10
2022-12-23T00:32:10.653Z,42.33
2022-12-23T00:35:17.060Z,40.45
2022-12-23T00:38:41.881Z,42.53
2022-12-23T00:42:06.196Z,39.33
2022-12-23T00:45:17.320Z,40.47
2022-12-23T00:48:41.823Z,42.13
2022-12-23T00:51:47.538Z,43.28
2022-12-23T00:54:53.038Z,43.33
2022-12-23T00:57:59.432Z,40.97
2022-12-23T01:01:24.472Z,43.08
2022-12-23T01:04:49.377Z,40.08
2022-12-23T01:07:56.427Z,38.67
2022-12-23T01:11:07.811Z,40.72
2022-12-23T01:14:14.223Z,41.40
2022-12-23T01:17:20.394Z,39.53
2022-12-23T01:20:26.204Z,41.15
2022-12-23T01:23:33.695Z,40.20
2022-12-23T01:26:39.565Z,43.13
2022-12-23T01:29:46.953Z,41.80
2022-12-23T01:32:53.352Z,42.40
2022-12-23T01:36:04.054Z,43.05
2022-12-23T01:39:09.967Z,39.42
2022-12-23T01:42:38.007Z,38.75
2022-12-23T01:45:44.202Z,40.30
2022-12-23T01:48:52.909Z,42.13
2022-12-23T01:51:58.418Z,39.15
2022-12-23T01:55:04.600Z,39.33
2022-12-23T01:58:37.289Z,41.05
2022-12-23T02:02:02.041Z,40.35
2022-12-23T02:05:08.877Z,40.53
2022-12-23T02:08:36.603Z,38.58
2022-12-23T02:11:55.670Z,40.05
2022-12-23T02:15:41.433Z,43.58
2022-12-23T02:18:55.606Z,41.05
2022-12-23T02:22:10.910Z,42.83
2022-12-23T02:25:54.108Z,38.50
2022-12-23T02:29:34.597Z,40.58
2022-12-23T02:32:58.511Z,40.55
2022-12-23T02:36:13.596Z,41.25
2022-12-23T02:39:44.884Z,43.40
2022-12-23T02:43:05.211Z,40.10
2022-12-23T02:46:14.164Z,39.97
2022-12-23T02:49:33.907Z,41.10
2022-12-23T02:52:41.660Z,40.28
2022-12-23T02:55:49.902Z,40.70
2022-12-23T02:59:00.819Z,41.30
2022-12-23T03:02:07.025Z,45.37
2022-12-23T03:05:40.791Z,42.28
2022-12-23T03:08:46.507Z,40.95
2022-12-23T03:12:09.169Z,40.30
2022-12-23T03:15:23.906Z,39.28
2022-12-23T03:18:39.781Z,39.97
2022-12-23T03:21:48.051Z,42.22
2022-12-23T03:24:59.787Z,41.13
2022-12-23T03:28:15.723Z,41.33
2022-12-23T03:31:27.765Z,42.85
2022-12-23T03:34:40.816Z,40.78
2022-12-23T03:37:50.000Z,44.03
2022-12-23T03:41:04.183Z,43.25
2022-12-23T03:44:33.494Z,41.50
2022-12-23T03:47:52.799Z,41.83
2022-12-23T03:51:04.794Z,42.30
2022-12-23T03:54:19.887Z,43.10
2022-12-23T03:57:44.148Z,43.80
2022-12-23T04:01:02.162Z,42.22
2022-12-23T04:04:32.585Z,41.88
2022-12-23T04:07:43.624Z,41.13
2022-12-23T04:10:49.790Z,45.17
2022-12-23T04:13:55.596Z,41.72
2022-12-23T04:17:01.966Z,40.65
2022-12-23T04:20:08.423Z,41.20
2022-12-23T04:23:14.235Z,42.03
2022-12-23T04:26:19.849Z,38.58
2022-12-23T04:29:25.978Z,42.60
2022-12-23T04:32:31.789Z,41.00
2022-12-23T04:35:37.543Z,41.03
2022-12-23T04:38:43.780Z,41.28
2022-12-23T04:41:49.714Z,41.72
2022-12-23T04:44:56.176Z,40.80
2022-12-23T04:48:02.316Z,41.78
2022-12-23T04:51:08.227Z,40.72
2022-12-23T04:54:14.247Z,40.45
2022-12-23T04:57:19.681Z,41.03
2022-12-23T05:00:25.068Z,39.92
2022-12-23T05:03:31.474Z,41.45
2022-12-23T05:06:38.027Z,41.47
2022-12-23T05:09:43.294Z,40.33
2022-12-23T05:12:48.878Z,37.55
2022-12-23T05:15:55.825Z,39.75
2022-12-23T05:19:02.257Z,41.33
2022-12-23T05:22:08.336Z,39.40
2022-12-23T05:25:14.394Z,42.05
2022-12-23T05:28:23.563Z,41.60
2022-12-23T05:31:29.050Z,40.70
2022-12-23T05:34:34.915Z,43.97
2022-12-23T05:37:41.409Z,41.95
2022-12-23T05:40:47.439Z,39.97
2022-12-23T05:43:54.480Z,41.90
2022-12-23T05:47:00.854Z,40.30
2022-12-23T05:50:07.902Z,42.00
2022-12-23T05:53:13.666Z,38.53
2022-12-23T05:56:20.238Z,40.75
2022-12-23T05:59:30.998Z,38.92
2022-12-23T06:02:37.769Z,39.77
2022-12-23T06:05:44.702Z,37.97
2022-12-23T06:08:54.474Z,39.08
2022-12-23T06:12:05.323Z,38.28
2022-12-23T06:15:11.416Z,36.60
2022-12-23T06:18:17.203Z,35.88
2022-12-23T06:21:23.004Z,37.05
2022-12-23T06:24:28.898Z,38.08
2022-12-23T06:27:35.030Z,37.80
2022-12-23T06:30:40.683Z,41.38
2022-12-23T06:33:47.833Z,40.15
2022-12-23T06:36:54.484Z,40.88
2022-12-23T06:40:01.522Z,41.40
2022-12-23T06:43:07.667Z,39.90
2022-12-23T06:46:14.882Z,39.10
2022-12-23T06:49:22.496Z,40.33
2022-12-23T06:52:28.870Z,38.63
2022-12-23T06:55:35.609Z,40.50
2022-12-23T06:58:41.523Z,43.67
2022-12-23T07:01:47.887Z,42.50
2022-12-23T07:04:54.207Z,41.30
2022-12-23T07:08:00.532Z,43.00
2022-12-23T07:11:06.918Z,41.20
2022-12-23T07:14:13.499Z,40.60
2022-12-23T07:17:19.449Z,40.17
2022-12-23T07:20:25.792Z,40.95
2022-12-23T07:23:32.789Z,40.47
2022-12-23T07:26:39.488Z,43.15
2022-12-23T07:29:45.299Z,44.58
2022-12-23T07:36:42.828Z,43.90
2022-12-23T07:39:47.929Z,41.25
2022-12-23T07:42:58.641Z,38.67
2022-12-23T07:46:08.802Z,40.38
2022-12-23T07:49:14.518Z,42.10
2022-12-23T07:52:19.952Z,41.70
2022-12-23T07:55:25.203Z,40.30
2022-12-23T07:58:30.653Z,40.00
2022-12-23T08:01:36.066Z,41.38
2022-12-23T08:04:45.953Z,40.40
2022-12-23T08:07:52.431Z,42.65
2022-12-23T08:11:06.661Z,40.00
2022-12-23T08:14:12.274Z,40.13
2022-12-23T08:17:17.662Z,41.78
2022-12-23T08:20:23.278Z,40.95
2022-12-23T08:23:30.168Z,40.05
2022-12-23T08:26:35.429Z,42.28
2022-12-23T08:29:41.059Z,42.67
2022-12-23T08:32:46.714Z,39.70
2022-12-23T08:35:55.092Z,39.53
2022-12-23T08:39:04.147Z,40.97
2022-12-23T08:42:10.068Z,41.72
2022-12-23T08:45:16.267Z,42.47
2022-12-23T08:48:21.877Z,40.17
2022-12-23T08:51:28.021Z,40.58
2022-12-23T08:54:33.173Z,40.70
2022-12-23T08:57:39.179Z,41.47
2022-12-23T09:00:44.581Z,40.35
2022-12-23T09:03:51.458Z,41.15
2022-12-23T09:06:56.792Z,39.45
2022-12-23T09:10:02.383Z,39.67
2022-12-23T09:13:08.124Z,42.20
2022-12-23T09:16:14.335Z,39.55
2022-12-23T09:19:20.678Z,39.67
2022-12-23T09:22:26.060Z,42.85
2022-12-23T09:25:31.851Z,40.50
2022-12-23T09:28:37.911Z,40.47
2022-12-23T09:31:51.230Z,38.88
2022-12-23T09:35:01.838Z,39.67
2022-12-23T09:38:16.017Z,40.38
2022-12-23T09:41:53.995Z,37.80
2022-12-23T09:45:47.125Z,38.45
2022-12-23T09:49:10.820Z,40.50
2022-12-23T09:52:53.717Z,43.15
2022-12-23T09:59:46.280Z,40.08
2022-12-23T10:03:07.774Z,44.60
2022-12-23T10:06:28.642Z,42.00
2022-12-23T10:09:44.482Z,44.22
2022-12-23T10:12:56.714Z,40.85
2022-12-23T10:16:24.960Z,42.80
2022-12-23T10:19:54.088Z,41.78
2022-12-23T10:23:09.603Z,41.55
2022-12-23T10:26:34.535Z,41.28
2022-12-23T10:29:54.472Z,40.83
2022-12-23T10:33:12.954Z,41.95
2022-12-23T10:36:58.709Z,43.55
2022-12-23T10:40:33.071Z,44.53
2022-12-23T10:44:07.955Z,45.65
2022-12-23T10:47:30.333Z,44.20
2022-12-23T10:51:00.331Z,44.92
2022-12-23T10:54:38.133Z,44.97
2022-12-23T10:57:49.785Z,43.03
2022-12-23T11:01:18.863Z,40.97
2022-12-23T11:04:59.085Z,43.15
2022-12-23T11:08:50.226Z,42.50
2022-12-23T11:13:06.864Z,46.17
2022-12-23T11:17:12.186Z,43.30
2022-12-23T11:20:33.786Z,44.28
2022-12-23T11:23:51.606Z,43.42
2022-12-23T11:27:32.339Z,44.78
2022-12-23T11:31:09.482Z,41.65
2022-12-23T11:34:31.739Z,43.20
2022-12-23T11:38:01.783Z,42.65
2022-12-23T11:41:32.765Z,41.05
2022-12-23T11:45:22.061Z,39.65
2022-12-23T11:49:20.179Z,40.40
2022-12-23T11:52:49.605Z,43.33
2022-12-23T11:56:34.936Z,42.30
2022-12-23T12:00:10.623Z,40.67
2022-12-23T12:03:43.278Z,40.03
2022-12-23T12:07:08.249Z,42.40
2022-12-23T12:10:30.534Z,40.72
2022-12-23T12:14:14.789Z,42.22
2022-12-23T12:17:59.437Z,39.55
2022-12-23T12:25:28.452Z,39.20
2022-12-23T12:28:54.700Z,38.22
2022-12-23T12:33:08.764Z,38.13
2022-12-23T12:37:31.031Z,39.17
2022-12-23T12:41:39.087Z,40.00
2022-12-23T12:45:25.236Z,42.10
2022-12-23T12:49:14.395Z,40.05
2022-12-23T12:52:50.822Z,45.20
2022-12-23T12:57:09.053Z,42.47
2022-12-23T13:00:38.483Z,43.33
2022-12-23T13:04:37.147Z,40.88
2022-12-23T13:08:33.300Z,43.28
2022-12-23T13:12:26.201Z,42.08
2022-12-23T13:16:15.503Z,44.38
2022-12-23T13:19:49.766Z,42.67
2022-12-23T13:23:51.144Z,41.50
2022-12-23T13:27:36.686Z,40.77
2022-12-23T13:31:31.803Z,41.35
2022-12-23T13:35:13.790Z,47.92
2022-12-23T13:39:03.609Z,42.45
2022-12-23T13:42:54.672Z,41.95
2022-12-23T13:47:10.197Z,42.20
2022-12-23T13:51:08.824Z,40.85
2022-12-23T13:55:22.466Z,45.40
2022-12-23T13:58:58.605Z,45.33
2022-12-23T14:02:59.938Z,46.08
2022-12-23T14:06:45.759Z,53.35
2022-12-23T14:10:21.724Z,44.72
2022-12-23T14:14:12.615Z,46.38
2022-12-23T14:18:26.175Z,44.45
2022-12-23T14:22:20.521Z,46.15
2022-12-23T14:25:54.028Z,49.85
2022-12-23T14:29:42.959Z,46.42
2022-12-23T14:33:41.938Z,49.08
2022-12-23T14:37:45.355Z,45.33
2022-12-23T14:41:50.567Z,46.58
2022-12-23T14:45:54.166Z,50.30
2022-12-23T14:50:11.917Z,45.08
2022-12-23T14:53:51.351Z,50.38
2022-12-23T14:57:40.513Z,47.38
2022-12-23T15:01:33.337Z,50.17
2022-12-23T15:05:11.623Z,46.33
2022-12-23T15:08:39.626Z,44.50
2022-12-23T15:12:12.921Z,45.00
2022-12-23T15:15:52.603Z,48.30
2022-12-23T15:19:45.976Z,48.00
2022-12-23T15:23:15.310Z,47.47
2022-12-23T15:26:35.516Z,48.28
2022-12-23T15:29:55.020Z,50.70
2022-12-23T15:33:43.089Z,47.20
2022-12-23T15:36:43.080Z,50.42
2022-12-23T15:40:02.005Z,52.67
2022-12-23T15:43:26.769Z,52.60
2022-12-23T15:46:43.392Z,52.83
2022-12-23T15:49:58.711Z,53.38
2022-12-23T15:53:19.104Z,56.47
2022-12-23T15:56:40.932Z,57.78
2022-12-23T16:00:04.836Z,57.50
2022-12-23T16:04:05.408Z,55.67
2022-12-23T16:07:52.780Z,54.80
2022-12-23T16:11:27.786Z,54.35
2022-12-23T16:15:02.066Z,56.45
2022-12-23T16:18:28.578Z,52.33
2022-12-23T16:22:02.603Z,51.88
2022-12-23T16:25:54.818Z,55.13
2022-12-23T16:29:26.293Z,53.88
2022-12-23T16:33:00.129Z,56.25
2022-12-23T16:36:47.610Z,55.15
2022-12-23T16:40:28.512Z,55.58
2022-12-23T16:43:52.404Z,53.50
2022-12-23T16:47:20.826Z,52.60
2022-12-23T16:50:44.067Z,54.08
2022-12-23T16:54:06.866Z,53.78
2022-12-23T16:57:32.312Z,55.80
2022-12-23T17:01:07.263Z,57.80
2022-12-23T17:04:32.834Z,58.90
2022-12-23T17:07:56.080Z,58.92
2022-12-23T17:11:41.023Z,66.07
2022-12-23T17:15:11.686Z,57.78
2022-12-23T17:18:40.160Z,58.75
2022-12-23T17:22:24.323Z,55.83
2022-12-23T17:25:49.035Z,54.65
2022-12-23T17:29:18.713Z,56.17
2022-12-23T17:32:41.061Z,59.75
2022-12-23T17:36:02.911Z,56.20
2022-12-23T17:39:23.287Z,54.08
2022-12-23T17:42:33.281Z,50.83
2022-12-23T17:45:38.693Z,51.58
2022-12-23T17:48:47.237Z,49.75
2022-12-23T17:51:52.689Z,51.72
2022-12-23T17:54:58.495Z,48.50
2022-12-23T17:58:04.128Z,51.25
2022-12-23T18:01:23.734Z,50.60
2022-12-23T18:04:29.470Z,54.97
2022-12-23T18:07:34.760Z,49.90
2022-12-23T18:10:40.997Z,52.80
2022-12-23T18:13:48.300Z,52.83
2022-12-23T18:16:53.974Z,49.55
2022-12-23T18:19:59.515Z,46.50
2022-12-23T18:23:05.513Z,52.13
2022-12-23T18:26:15.476Z,50.25
2022-12-23T18:29:20.812Z,52.63
2022-12-23T18:32:28.324Z,52.08
2022-12-23T18:35:39.994Z,51.38
2022-12-23T18:38:45.442Z,51.17
2022-12-23T18:41:50.672Z,54.40
2022-12-23T18:44:56.243Z,51.35
2022-12-23T18:48:04.414Z,52.55
2022-12-23T18:51:15.345Z,51.67
2022-12-23T18:54:20.930Z,56.65
2022-12-23T18:57:26.521Z,54.58
2022-12-23T19:00:33.852Z,58.20
2022-12-23T19:03:40.098Z,52.75
2022-12-23T19:06:46.257Z,54.42
2022-12-23T19:09:51.697Z,53.10
2022-12-23T19:12:57.111Z,52.05
2022-12-23T19:16:02.543Z,52.45
2022-12-23T19:19:08.360Z,54.25
2022-12-23T19:22:13.663Z,52.22
2022-12-23T19:25:19.685Z,51.17
2022-12-23T19:28:24.899Z,55.67
2022-12-23T19:31:30.044Z,52.17
2022-12-23T19:34:35.867Z,54.40
2022-12-23T19:37:42.695Z,54.95
2022-12-23T19:40:57.698Z,52.13
2022-12-23T19:44:03.769Z,54.20
2022-12-23T19:47:09.417Z,52.00
2022-12-23T19:50:14.749Z,53.45
2022-12-23T19:53:19.974Z,52.92
2022-12-23T19:56:26.289Z,50.03
2022-12-23T19:59:31.727Z,52.42
2022-12-23T20:02:37.507Z,51.10
2022-12-23T20:05:50.846Z,49.55
2022-12-23T20:09:00.907Z,50.30
2022-12-23T20:12:07.429Z,49.15
2022-12-23T20:15:12.505Z,50.35
2022-12-23T20:18:17.453Z,49.22
2022-12-23T20:21:23.394Z,52.22
2022-12-23T20:24:28.571Z,52.22
2022-12-23T20:27:33.955Z,50.55
2022-12-23T20:30:39.732Z,48.92
2022-12-23T20:33:46.157Z,47.28
2022-12-23T20:36:51.584Z,49.88
2022-12-23T20:39:56.838Z,48.38
2022-12-23T20:43:03.433Z,47.35
2022-12-23T20:46:12.535Z,49.17
2022-12-23T20:49:17.894Z,48.88
2022-12-23T20:52:23.261Z,48.33
2022-12-23T20:55:29.045Z,48.25
2022-12-23T20:58:55.277Z,46.65
2022-12-23T21:02:01.418Z,48.58
2022-12-23T21:05:06.857Z,47.88
2022-12-23T21:08:12.226Z,51.70
2022-12-23T21:11:18.339Z,49.30
2022-12-23T21:14:23.794Z,49.05
2022-12-23T21:17:31.352Z,50.22
2022-12-23T21:20:37.744Z,48.40
2022-12-23T21:23:43.274Z,50.00
2022-12-23T21:26:55.390Z,46.70
2022-12-23T21:30:02.016Z,48.40
2022-12-23T21:33:07.502Z,48.97
2022-12-23T21:36:19.776Z,50.08
2022-12-23T21:39:26.179Z,51.80
2022-12-23T21:42:31.500Z,50.25
2022-12-23T21:45:37.079Z,50.63
2022-12-23T21:48:43.302Z,47.65
2022-12-23T21:51:48.551Z,50.88
2022-12-23T21:54:54.114Z,49.78
2022-12-23T21:57:59.719Z,50.70
2022-12-23T22:01:14.952Z,52.00
2022-12-23T22:04:20.560Z,53.30
2022-12-23T22:07:26.169Z,51.45
2022-12-23T22:10:31.760Z,53.35
2022-12-23T22:13:37.272Z,52.78
2022-12-23T22:16:43.394Z,52.53
2022-12-23T22:19:49.078Z,52.63
2022-12-23T22:22:54.985Z,52.92
2022-12-23T22:26:00.114Z,51.50
2022-12-23T22:29:07.197Z,52.15
2022-12-23T22:32:12.808Z,53.88
2022-12-23T22:35:18.141Z,51.17
2022-12-23T22:38:23.738Z,50.92
2022-12-23T22:41:30.533Z,55.13
2022-12-23T22:44:36.271Z,50.20
2022-12-23T22:47:41.611Z,57.13
2022-12-23T22:50:47.322Z,54.70
2022-12-23T22:53:53.703Z,56.22
2022-12-23T22:56:59.456Z,55.58
2022-12-23T23:00:11.972Z,56.60
2022-12-23T23:03:18.457Z,55.40
2022-12-23T23:06:32.422Z,54.25
2022-12-23T23:09:37.941Z,56.13
2022-12-23T23:12:44.800Z,53.35
2022-12-23T23:15:50.741Z,52.80
2022-12-23T23:18:56.395Z,52.65
2022-12-23T23:22:01.935Z,54.00
2022-12-23T23:25:07.526Z,54.67
2022-12-23T23:28:13.123Z,52.65
2022-12-23T23:34:44.674Z,54.63
2022-12-23T23:37:50.232Z,53.95
2022-12-23T23:40:57.497Z,54.53
2022-12-23T23:44:02.652Z,52.40
2022-12-23T23:47:08.200Z,54.00
2022-12-23T23:50:13.976Z,55.40
2022-12-23T23:53:19.798Z,53.75
2022-12-23T23:56:27.945Z,53.58
2022-12-23T23:59:35.596Z,53.88
